sensor_id;sensor_type;location;lat;lon;timestamp;P1;durP1;ratioP1;P2;durP2;ratioP2
7759;SDS011;3924;48.830;9.262;2023-04-24T00:01:33;2.00;;;0.47;;
7759;SDS011;3924;48.830;9.262;2023-04-24T00:04:00;0.70;;;0.70;;
7759;SDS011;3924;48.830;9.262;2023-04-24T00:06:28;0.67;;;0.50;;
7759;SDS011;3924;48.830;9.262;2023-04-24T00:09:00;2.37;;;0.70;;
7759;SDS011;3924;48.830;9.262;2023-04-24T00:11:27;1.20;;;0.47;;
7759;SDS011;3924;48.830;9.262;2023-04-24T00:13:53;1.50;;;0.57;;
7759;SDS011;3924;48.830;9.262;2023-04-24T00:16:20;0.67;;;0.67;;
7759;SDS011;3924;48.830;9.262;2023-04-24T00:18:48;1.03;;;0.50;;
7759;SDS011;3924;48.830;9.262;2023-04-24T00:21:14;1.80;;;0.50;;
7759;SDS011;3924;48.830;9.262;2023-04-24T00:23:43;1.80;;;0.60;;
7759;SDS011;3924;48.830;9.262;2023-04-24T00:26:10;0.57;;;0.50;;
7759;SDS011;3924;48.830;9.262;2023-04-24T00:28:36;1.23;;;0.50;;
7759;SDS011;3924;48.830;9.262;2023-04-24T00:31:03;0.60;;;0.60;;
7759;SDS011;3924;48.830;9.262;2023-04-24T00:33:29;0.87;;;0.60;;
7759;SDS011;3924;48.830;9.262;2023-04-24T00:35:57;0.40;;;0.40;;
7759;SDS011;3924;48.830;9.262;2023-04-24T00:38:23;0.50;;;0.50;;
7759;SDS011;3924;48.830;9.262;2023-04-24T00:40:50;0.80;;;0.57;;
7759;SDS011;3924;48.830;9.262;2023-04-24T00:43:17;1.10;;;0.70;;
7759;SDS011;3924;48.830;9.262;2023-04-24T00:45:43;0.50;;;0.50;;
7759;SDS011;3924;48.830;9.262;2023-04-24T00:48:10;3.80;;;0.50;;
7759;SDS011;3924;48.830;9.262;2023-04-24T00:50:38;0.50;;;0.50;;
7759;SDS011;3924;48.830;9.262;2023-04-24T00:53:05;0.97;;;0.70;;
7759;SDS011;3924;48.830;9.262;2023-04-24T00:55:32;0.73;;;0.60;;
7759;SDS011;3924;48.830;9.262;2023-04-24T00:57:58;1.37;;;0.60;;
7759;SDS011;3924;48.830;9.262;2023-04-24T01:00:25;0.70;;;0.70;;
7759;SDS011;3924;48.830;9.262;2023-04-24T01:02:52;1.03;;;0.60;;
7759;SDS011;3924;48.830;9.262;2023-04-24T01:05:19;0.97;;;0.60;;
7759;SDS011;3924;48.830;9.262;2023-04-24T01:07:46;0.60;;;0.50;;
7759;SDS011;3924;48.830;9.262;2023-04-24T01:10:15;0.63;;;0.63;;
7759;SDS011;3924;48.830;9.262;2023-04-24T01:12:43;1.53;;;0.60;;
7759;SDS011;3924;48.830;9.262;2023-04-24T01:15:09;0.40;;;0.40;;
7759;SDS011;3924;48.830;9.262;2023-04-24T01:17:36;0.90;;;0.67;;
7759;SDS011;3924;48.830;9.262;2023-04-24T01:20:03;1.23;;;0.60;;
7759;SDS011;3924;48.830;9.262;2023-04-24T01:22:34;0.50;;;0.50;;
7759;SDS011;3924;48.830;9.262;2023-04-24T01:25:01;0.50;;;0.50;;
7759;SDS011;3924;48.830;9.262;2023-04-24T01:27:29;1.47;;;0.60;;
7759;SDS011;3924;48.830;9.262;2023-04-24T01:29:55;0.40;;;0.40;;
7759;SDS011;3924;48.830;9.262;2023-04-24T01:32:22;0.50;;;0.50;;
7759;SDS011;3924;48.830;9.262;2023-04-24T01:34:50;0.50;;;0.50;;
7759;SDS011;3924;48.830;9.262;2023-04-24T01:37:17;1.07;;;0.50;;
7759;SDS011;3924;48.830;9.262;2023-04-24T01:39:44;1.33;;;0.60;;
7759;SDS011;3924;48.830;9.262;2023-04-24T01:42:10;1.20;;;0.63;;
7759;SDS011;3924;48.830;9.262;2023-04-24T01:44:38;0.60;;;0.60;;
7759;SDS011;3924;48.830;9.262;2023-04-24T01:47:06;1.63;;;0.70;;
7759;SDS011;3924;48.830;9.262;2023-04-24T01:49:34;0.40;;;0.40;;
7759;SDS011;3924;48.830;9.262;2023-04-24T01:52:01;0.77;;;0.77;;
7759;SDS011;3924;48.830;9.262;2023-04-24T01:54:27;0.40;;;0.40;;
7759;SDS011;3924;48.830;9.262;2023-04-24T01:56:54;0.50;;;0.50;;
7759;SDS011;3924;48.830;9.262;2023-04-24T01:59:20;0.50;;;0.50;;
7759;SDS011;3924;48.830;9.262;2023-04-24T02:01:49;1.70;;;0.50;;
7759;SDS011;3924;48.830;9.262;2023-04-24T02:04:16;5.30;;;0.60;;
7759;SDS011;3924;48.830;9.262;2023-04-24T02:06:42;0.70;;;0.70;;
7759;SDS011;3924;48.830;9.262;2023-04-24T02:09:09;0.57;;;0.57;;
7759;SDS011;3924;48.830;9.262;2023-04-24T02:11:36;0.60;;;0.60;;
7759;SDS011;3924;48.830;9.262;2023-04-24T02:14:03;0.50;;;0.50;;
7759;SDS011;3924;48.830;9.262;2023-04-24T02:16:29;0.67;;;0.60;;
7759;SDS011;3924;48.830;9.262;2023-04-24T02:18:59;1.13;;;0.40;;
7759;SDS011;3924;48.830;9.262;2023-04-24T02:21:25;0.47;;;0.40;;
7759;SDS011;3924;48.830;9.262;2023-04-24T02:23:51;0.67;;;0.50;;
7759;SDS011;3924;48.830;9.262;2023-04-24T02:26:18;1.30;;;0.60;;
7759;SDS011;3924;48.830;9.262;2023-04-24T02:28:44;1.17;;;0.40;;
7759;SDS011;3924;48.830;9.262;2023-04-24T02:31:11;0.93;;;0.70;;
7759;SDS011;3924;48.830;9.262;2023-04-24T02:33:37;0.43;;;0.43;;
7759;SDS011;3924;48.830;9.262;2023-04-24T02:36:04;6.13;;;0.63;;
7759;SDS011;3924;48.830;9.262;2023-04-24T02:38:30;0.40;;;0.40;;
7759;SDS011;3924;48.830;9.262;2023-04-24T02:40:57;1.13;;;0.80;;
7759;SDS011;3924;48.830;9.262;2023-04-24T02:43:24;0.57;;;0.57;;
7759;SDS011;3924;48.830;9.262;2023-04-24T02:45:50;0.40;;;0.40;;
7759;SDS011;3924;48.830;9.262;2023-04-24T02:48:17;2.37;;;0.60;;
7759;SDS011;3924;48.830;9.262;2023-04-24T02:50:43;0.60;;;0.60;;
7759;SDS011;3924;48.830;9.262;2023-04-24T02:53:10;0.60;;;0.60;;
7759;SDS011;3924;48.830;9.262;2023-04-24T02:55:36;3.43;;;0.60;;
7759;SDS011;3924;48.830;9.262;2023-04-24T02:58:03;0.57;;;0.57;;
7759;SDS011;3924;48.830;9.262;2023-04-24T03:00:29;0.70;;;0.70;;
7759;SDS011;3924;48.830;9.262;2023-04-24T03:02:56;1.23;;;0.53;;
7759;SDS011;3924;48.830;9.262;2023-04-24T03:05:23;0.83;;;0.50;;
7759;SDS011;3924;48.830;9.262;2023-04-24T03:07:49;0.70;;;0.70;;
7759;SDS011;3924;48.830;9.262;2023-04-24T03:10:18;1.43;;;0.40;;
7759;SDS011;3924;48.830;9.262;2023-04-24T03:12:45;1.20;;;0.70;;
7759;SDS011;3924;48.830;9.262;2023-04-24T03:15:12;3.93;;;0.70;;
7759;SDS011;3924;48.830;9.262;2023-04-24T03:17:38;0.93;;;0.50;;
7759;SDS011;3924;48.830;9.262;2023-04-24T03:20:05;0.80;;;0.50;;
7759;SDS011;3924;48.830;9.262;2023-04-24T03:22:41;0.70;;;0.70;;
7759;SDS011;3924;48.830;9.262;2023-04-24T03:25:35;0.57;;;0.57;;
7759;SDS011;3924;48.830;9.262;2023-04-24T03:28:34;1.33;;;0.67;;
7759;SDS011;3924;48.830;9.262;2023-04-24T03:34:31;2.27;;;0.60;;
7759;SDS011;3924;48.830;9.262;2023-04-24T03:37:07;0.80;;;0.80;;
7759;SDS011;3924;48.830;9.262;2023-04-24T03:39:56;1.70;;;0.80;;
7759;SDS011;3924;48.830;9.262;2023-04-24T03:42:28;0.80;;;0.80;;
7759;SDS011;3924;48.830;9.262;2023-04-24T03:45:28;1.33;;;1.00;;
7759;SDS011;3924;48.830;9.262;2023-04-24T03:48:24;0.73;;;0.73;;
7759;SDS011;3924;48.830;9.262;2023-04-24T03:51:06;0.63;;;0.63;;
7759;SDS011;3924;48.830;9.262;2023-04-24T03:54:20;2.83;;;0.80;;
7759;SDS011;3924;48.830;9.262;2023-04-24T03:57:31;0.50;;;0.50;;
7759;SDS011;3924;48.830;9.262;2023-04-24T04:09:12;0.83;;;0.60;;
7759;SDS011;3924;48.830;9.262;2023-04-24T04:16:45;0.60;;;0.60;;
7759;SDS011;3924;48.830;9.262;2023-04-24T04:39:23;2.87;;;0.50;;
7759;SDS011;3924;48.830;9.262;2023-04-24T05:25:28;0.70;;;0.70;;
7759;SDS011;3924;48.830;9.262;2023-04-24T05:29:13;0.77;;;0.63;;
7759;SDS011;3924;48.830;9.262;2023-04-24T05:36:55;1.70;;;0.73;;
7759;SDS011;3924;48.830;9.262;2023-04-24T05:40:16;1.43;;;0.80;;
7759;SDS011;3924;48.830;9.262;2023-04-24T05:47:45;0.97;;;0.97;;
7759;SDS011;3924;48.830;9.262;2023-04-24T05:54:02;0.90;;;0.90;;
7759;SDS011;3924;48.830;9.262;2023-04-24T06:07:48;1.10;;;0.90;;
7759;SDS011;3924;48.830;9.262;2023-04-24T06:10:58;1.10;;;1.00;;
7759;SDS011;3924;48.830;9.262;2023-04-24T06:17:25;0.80;;;0.80;;
7759;SDS011;3924;48.830;9.262;2023-04-24T06:27:18;0.97;;;0.90;;
7759;SDS011;3924;48.830;9.262;2023-04-24T06:30:55;0.90;;;0.90;;
7759;SDS011;3924;48.830;9.262;2023-04-24T06:38:49;0.80;;;0.80;;
7759;SDS011;3924;48.830;9.262;2023-04-24T06:42:19;1.07;;;0.90;;
7759;SDS011;3924;48.830;9.262;2023-04-24T06:45:13;0.90;;;0.90;;
7759;SDS011;3924;48.830;9.262;2023-04-24T06:48:11;2.73;;;0.63;;
7759;SDS011;3924;48.830;9.262;2023-04-24T06:50:52;1.13;;;1.03;;
7759;SDS011;3924;48.830;9.262;2023-04-24T06:53:32;2.07;;;1.10;;
7759;SDS011;3924;48.830;9.262;2023-04-24T06:56:03;1.33;;;1.00;;
7759;SDS011;3924;48.830;9.262;2023-04-24T06:59:24;1.37;;;0.90;;
7759;SDS011;3924;48.830;9.262;2023-04-24T07:03:05;0.80;;;0.80;;
7759;SDS011;3924;48.830;9.262;2023-04-24T07:06:34;1.00;;;1.00;;
7759;SDS011;3924;48.830;9.262;2023-04-24T07:14:18;0.97;;;0.97;;
7759;SDS011;3924;48.830;9.262;2023-04-24T07:16:45;1.53;;;1.10;;
7759;SDS011;3924;48.830;9.262;2023-04-24T07:19:15;1.07;;;1.00;;
7759;SDS011;3924;48.830;9.262;2023-04-24T07:21:42;3.70;;;1.10;;
7759;SDS011;3924;48.830;9.262;2023-04-24T07:24:12;1.43;;;1.00;;
7759;SDS011;3924;48.830;9.262;2023-04-24T07:26:59;3.43;;;1.00;;
7759;SDS011;3924;48.830;9.262;2023-04-24T07:29:35;0.87;;;0.87;;
7759;SDS011;3924;48.830;9.262;2023-04-24T07:32:59;0.90;;;0.90;;
7759;SDS011;3924;48.830;9.262;2023-04-24T07:35:34;0.90;;;0.90;;
7759;SDS011;3924;48.830;9.262;2023-04-24T07:41:17;1.03;;;1.00;;
7759;SDS011;3924;48.830;9.262;2023-04-24T07:44:20;0.70;;;0.53;;
7759;SDS011;3924;48.830;9.262;2023-04-24T07:49:52;0.83;;;0.80;;
7759;SDS011;3924;48.830;9.262;2023-04-24T07:56:30;0.90;;;0.90;;
7759;SDS011;3924;48.830;9.262;2023-04-24T08:10:28;0.93;;;0.90;;
7759;SDS011;3924;48.830;9.262;2023-04-24T08:48:48;1.00;;;0.90;;
7759;SDS011;3924;48.830;9.262;2023-04-24T08:52:41;0.80;;;0.80;;
7759;SDS011;3924;48.830;9.262;2023-04-24T09:03:37;0.90;;;0.90;;
7759;SDS011;3924;48.830;9.262;2023-04-24T09:06:58;1.50;;;0.80;;
7759;SDS011;3924;48.830;9.262;2023-04-24T09:10:10;0.73;;;0.73;;
7759;SDS011;3924;48.830;9.262;2023-04-24T09:16:55;1.40;;;0.90;;
7759;SDS011;3924;48.830;9.262;2023-04-24T09:20:11;0.80;;;0.77;;
7759;SDS011;3924;48.830;9.262;2023-04-24T09:23:17;1.67;;;0.80;;
7759;SDS011;3924;48.830;9.262;2023-04-24T09:34:40;0.70;;;0.70;;
7759;SDS011;3924;48.830;9.262;2023-04-24T09:46:09;1.27;;;1.03;;
7759;SDS011;3924;48.830;9.262;2023-04-24T09:48:47;2.00;;;1.40;;
7759;SDS011;3924;48.830;9.262;2023-04-24T09:52:34;0.80;;;0.80;;
7759;SDS011;3924;48.830;9.262;2023-04-24T09:55:27;1.63;;;0.80;;
7759;SDS011;3924;48.830;9.262;2023-04-24T09:58:11;3.17;;;1.20;;
7759;SDS011;3924;48.830;9.262;2023-04-24T10:03:36;0.87;;;0.70;;
7759;SDS011;3924;48.830;9.262;2023-04-24T10:07:17;1.37;;;0.77;;
7759;SDS011;3924;48.830;9.262;2023-04-24T10:09:55;1.47;;;0.77;;
7759;SDS011;3924;48.830;9.262;2023-04-24T10:12:40;0.73;;;0.73;;
7759;SDS011;3924;48.830;9.262;2023-04-24T10:16:16;0.70;;;0.70;;
7759;SDS011;3924;48.830;9.262;2023-04-24T10:18:50;0.70;;;0.70;;
7759;SDS011;3924;48.830;9.262;2023-04-24T10:33:42;0.60;;;0.60;;
7759;SDS011;3924;48.830;9.262;2023-04-24T10:40:47;0.73;;;0.73;;
7759;SDS011;3924;48.830;9.262;2023-04-24T10:59:34;0.90;;;0.80;;
7759;SDS011;3924;48.830;9.262;2023-04-24T11:22:05;1.00;;;1.00;;
7759;SDS011;3924;48.830;9.262;2023-04-24T11:29:10;1.00;;;0.90;;
7759;SDS011;3924;48.830;9.262;2023-04-24T11:32:43;0.87;;;0.87;;
7759;SDS011;3924;48.830;9.262;2023-04-24T11:35:54;1.23;;;1.00;;
7759;SDS011;3924;48.830;9.262;2023-04-24T11:39:45;1.00;;;0.90;;
7759;SDS011;3924;48.830;9.262;2023-04-24T11:46:56;0.70;;;0.70;;
7759;SDS011;3924;48.830;9.262;2023-04-24T12:05:32;1.00;;;0.90;;
7759;SDS011;3924;48.830;9.262;2023-04-24T12:12:43;0.93;;;0.93;;
7759;SDS011;3924;48.830;9.262;2023-04-24T12:19:47;0.80;;;0.80;;
7759;SDS011;3924;48.830;9.262;2023-04-24T12:26:49;1.00;;;0.90;;
7759;SDS011;3924;48.830;9.262;2023-04-24T12:30:50;0.90;;;0.90;;
7759;SDS011;3924;48.830;9.262;2023-04-24T13:12:25;1.17;;;1.00;;
7759;SDS011;3924;48.830;9.262;2023-04-24T13:19:05;0.70;;;0.70;;
7759;SDS011;3924;48.830;9.262;2023-04-24T13:25:47;0.70;;;0.70;;
7759;SDS011;3924;48.830;9.262;2023-04-24T13:36:05;1.30;;;0.80;;
7759;SDS011;3924;48.830;9.262;2023-04-24T13:39:19;1.57;;;1.10;;
7759;SDS011;3924;48.830;9.262;2023-04-24T13:50:31;1.20;;;1.10;;
7759;SDS011;3924;48.830;9.262;2023-04-24T13:57:05;0.97;;;0.97;;
7759;SDS011;3924;48.830;9.262;2023-04-24T14:00:21;0.90;;;0.90;;
7759;SDS011;3924;48.830;9.262;2023-04-24T14:03:45;1.00;;;1.00;;
7759;SDS011;3924;48.830;9.262;2023-04-24T14:13:56;0.83;;;0.83;;
7759;SDS011;3924;48.830;9.262;2023-04-24T14:16:44;0.77;;;0.77;;
7759;SDS011;3924;48.830;9.262;2023-04-24T14:19:46;1.67;;;0.93;;
7759;SDS011;3924;48.830;9.262;2023-04-24T14:22:42;0.97;;;0.97;;
7759;SDS011;3924;48.830;9.262;2023-04-24T14:26:09;0.90;;;0.90;;
7759;SDS011;3924;48.830;9.262;2023-04-24T14:29:14;1.07;;;1.00;;
7759;SDS011;3924;48.830;9.262;2023-04-24T14:33:10;0.80;;;0.80;;
7759;SDS011;3924;48.830;9.262;2023-04-24T14:36:32;0.60;;;0.60;;
7759;SDS011;3924;48.830;9.262;2023-04-24T14:40:12;0.70;;;0.70;;
7759;SDS011;3924;48.830;9.262;2023-04-24T14:43:06;1.03;;;1.00;;
7759;SDS011;3924;48.830;9.262;2023-04-24T14:46:16;0.70;;;0.70;;
7759;SDS011;3924;48.830;9.262;2023-04-24T14:53:13;2.43;;;1.00;;
7759;SDS011;3924;48.830;9.262;2023-04-24T15:00:00;1.10;;;1.10;;
7759;SDS011;3924;48.830;9.262;2023-04-24T15:15:35;1.83;;;1.00;;
7759;SDS011;3924;48.830;9.262;2023-04-24T15:19:02;1.13;;;1.10;;
7759;SDS011;3924;48.830;9.262;2023-04-24T15:25:11;1.80;;;1.60;;
7759;SDS011;3924;48.830;9.262;2023-04-24T15:32:44;2.00;;;1.20;;
7759;SDS011;3924;48.830;9.262;2023-04-24T15:35:34;1.40;;;1.10;;
7759;SDS011;3924;48.830;9.262;2023-04-24T15:38:12;1.40;;;1.30;;
7759;SDS011;3924;48.830;9.262;2023-04-24T15:44:11;0.90;;;0.90;;
7759;SDS011;3924;48.830;9.262;2023-04-24T15:46:49;1.57;;;1.20;;
7759;SDS011;3924;48.830;9.262;2023-04-24T15:50:28;0.83;;;0.83;;
7759;SDS011;3924;48.830;9.262;2023-04-24T15:53:10;0.90;;;0.90;;
7759;SDS011;3924;48.830;9.262;2023-04-24T15:56:19;1.20;;;1.00;;
7759;SDS011;3924;48.830;9.262;2023-04-24T15:59:17;1.80;;;1.70;;
7759;SDS011;3924;48.830;9.262;2023-04-24T16:02:57;0.80;;;0.80;;
7759;SDS011;3924;48.830;9.262;2023-04-24T16:05:56;0.90;;;0.90;;
7759;SDS011;3924;48.830;9.262;2023-04-24T16:12:08;1.43;;;1.33;;
7759;SDS011;3924;48.830;9.262;2023-04-24T16:14:51;0.90;;;0.90;;
7759;SDS011;3924;48.830;9.262;2023-04-24T16:17:24;1.37;;;1.00;;
7759;SDS011;3924;48.830;9.262;2023-04-24T16:20:08;0.90;;;0.90;;
7759;SDS011;3924;48.830;9.262;2023-04-24T16:23:24;1.20;;;1.10;;
7759;SDS011;3924;48.830;9.262;2023-04-24T16:25:54;1.37;;;1.00;;
7759;SDS011;3924;48.830;9.262;2023-04-24T16:28:51;0.90;;;0.90;;
7759;SDS011;3924;48.830;9.262;2023-04-24T16:37:48;1.00;;;1.00;;
7759;SDS011;3924;48.830;9.262;2023-04-24T16:40:24;0.90;;;0.90;;
7759;SDS011;3924;48.830;9.262;2023-04-24T16:42:55;0.90;;;0.90;;
7759;SDS011;3924;48.830;9.262;2023-04-24T16:45:57;0.73;;;0.73;;
7759;SDS011;3924;48.830;9.262;2023-04-24T16:48:44;2.13;;;1.00;;
7759;SDS011;3924;48.830;9.262;2023-04-24T16:51:17;1.17;;;1.13;;
7759;SDS011;3924;48.830;9.262;2023-04-24T16:53:48;1.07;;;1.00;;
7759;SDS011;3924;48.830;9.262;2023-04-24T16:56:22;2.17;;;1.00;;
7759;SDS011;3924;48.830;9.262;2023-04-24T16:59:02;1.33;;;1.23;;
7759;SDS011;3924;48.830;9.262;2023-04-24T17:01:48;1.67;;;1.00;;
7759;SDS011;3924;48.830;9.262;2023-04-24T17:04:34;0.97;;;0.97;;
7759;SDS011;3924;48.830;9.262;2023-04-24T17:07:18;0.93;;;0.93;;
7759;SDS011;3924;48.830;9.262;2023-04-24T17:09:51;1.20;;;1.10;;
7759;SDS011;3924;48.830;9.262;2023-04-24T17:12:28;1.33;;;1.13;;
7759;SDS011;3924;48.830;9.262;2023-04-24T17:14:57;0.73;;;0.70;;
7759;SDS011;3924;48.830;9.262;2023-04-24T17:17:32;0.90;;;0.90;;
7759;SDS011;3924;48.830;9.262;2023-04-24T17:19:59;1.40;;;1.03;;
7759;SDS011;3924;48.830;9.262;2023-04-24T17:22:47;1.10;;;1.10;;
7759;SDS011;3924;48.830;9.262;2023-04-24T17:25:20;3.33;;;0.90;;
7759;SDS011;3924;48.830;9.262;2023-04-24T17:27:49;1.47;;;1.37;;
7759;SDS011;3924;48.830;9.262;2023-04-24T17:30:47;1.03;;;1.00;;
7759;SDS011;3924;48.830;9.262;2023-04-24T17:33:55;0.97;;;0.97;;
7759;SDS011;3924;48.830;9.262;2023-04-24T17:36:37;1.63;;;1.00;;
7759;SDS011;3924;48.830;9.262;2023-04-24T17:39:17;0.73;;;0.73;;
7759;SDS011;3924;48.830;9.262;2023-04-24T17:41:47;0.87;;;0.87;;
7759;SDS011;3924;48.830;9.262;2023-04-24T17:44:17;1.40;;;0.90;;
7759;SDS011;3924;48.830;9.262;2023-04-24T17:46:54;0.80;;;0.80;;
7759;SDS011;3924;48.830;9.262;2023-04-24T17:49:31;4.83;;;1.00;;
7759;SDS011;3924;48.830;9.262;2023-04-24T17:52:14;0.90;;;0.90;;
7759;SDS011;3924;48.830;9.262;2023-04-24T17:54:49;0.70;;;0.70;;
7759;SDS011;3924;48.830;9.262;2023-04-24T17:57:47;0.70;;;0.70;;
7759;SDS011;3924;48.830;9.262;2023-04-24T18:00:41;0.80;;;0.80;;
7759;SDS011;3924;48.830;9.262;2023-04-24T18:06:36;1.10;;;1.00;;
7759;SDS011;3924;48.830;9.262;2023-04-24T18:09:19;1.53;;;0.80;;
7759;SDS011;3924;48.830;9.262;2023-04-24T18:12:20;1.47;;;1.00;;
7759;SDS011;3924;48.830;9.262;2023-04-24T18:18:25;1.00;;;1.00;;
7759;SDS011;3924;48.830;9.262;2023-04-24T18:29:03;0.97;;;0.97;;
7759;SDS011;3924;48.830;9.262;2023-04-24T18:32:20;0.93;;;0.87;;
7759;SDS011;3924;48.830;9.262;2023-04-24T18:35:10;1.00;;;1.00;;
7759;SDS011;3924;48.830;9.262;2023-04-24T18:37:50;2.30;;;0.90;;
7759;SDS011;3924;48.830;9.262;2023-04-24T18:40:52;1.10;;;1.00;;
7759;SDS011;3924;48.830;9.262;2023-04-24T18:43:25;1.20;;;1.20;;
7759;SDS011;3924;48.830;9.262;2023-04-24T18:47:11;4.20;;;1.50;;
7759;SDS011;3924;48.830;9.262;2023-04-24T18:52:54;1.53;;;1.40;;
7759;SDS011;3924;48.830;9.262;2023-04-24T18:55:22;1.00;;;1.00;;
7759;SDS011;3924;48.830;9.262;2023-04-24T18:57:50;2.50;;;1.20;;
7759;SDS011;3924;48.830;9.262;2023-04-24T19:00:20;1.50;;;1.40;;
7759;SDS011;3924;48.830;9.262;2023-04-24T19:02:48;1.20;;;1.20;;
7759;SDS011;3924;48.830;9.262;2023-04-24T19:05:16;1.70;;;1.10;;
7759;SDS011;3924;48.830;9.262;2023-04-24T19:07:43;1.07;;;1.07;;
7759;SDS011;3924;48.830;9.262;2023-04-24T19:10:14;1.53;;;1.43;;
7759;SDS011;3924;48.830;9.262;2023-04-24T19:12:50;2.07;;;1.20;;
7759;SDS011;3924;48.830;9.262;2023-04-24T19:15:36;1.80;;;1.13;;
7759;SDS011;3924;48.830;9.262;2023-04-24T19:18:11;1.03;;;1.00;;
7759;SDS011;3924;48.830;9.262;2023-04-24T19:21:28;1.30;;;1.20;;
7759;SDS011;3924;48.830;9.262;2023-04-24T19:24:03;1.07;;;0.90;;
7759;SDS011;3924;48.830;9.262;2023-04-24T19:26:44;1.00;;;1.00;;
7759;SDS011;3924;48.830;9.262;2023-04-24T19:29:16;1.07;;;1.07;;
7759;SDS011;3924;48.830;9.262;2023-04-24T19:31:50;1.13;;;1.07;;
7759;SDS011;3924;48.830;9.262;2023-04-24T19:34:37;1.37;;;1.27;;
7759;SDS011;3924;48.830;9.262;2023-04-24T19:37:09;1.77;;;1.30;;
7759;SDS011;3924;48.830;9.262;2023-04-24T19:43:07;1.30;;;1.20;;
7759;SDS011;3924;48.830;9.262;2023-04-24T19:45:55;1.00;;;1.00;;
7759;SDS011;3924;48.830;9.262;2023-04-24T20:06:53;2.03;;;1.63;;
7759;SDS011;3924;48.830;9.262;2023-04-24T20:10:13;1.47;;;1.37;;
7759;SDS011;3924;48.830;9.262;2023-04-24T20:13:06;2.43;;;1.43;;
7759;SDS011;3924;48.830;9.262;2023-04-24T20:19:28;1.40;;;1.30;;
7759;SDS011;3924;48.830;9.262;2023-04-24T20:22:17;2.47;;;1.30;;
7759;SDS011;3924;48.830;9.262;2023-04-24T20:28:33;1.20;;;1.10;;
7759;SDS011;3924;48.830;9.262;2023-04-24T20:31:14;1.47;;;1.23;;
7759;SDS011;3924;48.830;9.262;2023-04-24T20:33:57;2.40;;;1.27;;
7759;SDS011;3924;48.830;9.262;2023-04-24T20:36:58;1.37;;;1.27;;
7759;SDS011;3924;48.830;9.262;2023-04-24T20:40:38;1.10;;;1.10;;
7759;SDS011;3924;48.830;9.262;2023-04-24T20:44:25;2.03;;;1.20;;
7759;SDS011;3924;48.830;9.262;2023-04-24T20:47:26;0.80;;;0.80;;
7759;SDS011;3924;48.830;9.262;2023-04-24T20:50:43;1.00;;;1.00;;
7759;SDS011;3924;48.830;9.262;2023-04-24T20:54:05;1.00;;;1.00;;
7759;SDS011;3924;48.830;9.262;2023-04-24T21:01:24;1.90;;;1.50;;
7759;SDS011;3924;48.830;9.262;2023-04-24T21:04:15;1.17;;;1.13;;
7759;SDS011;3924;48.830;9.262;2023-04-24T21:07:11;1.20;;;1.20;;
7759;SDS011;3924;48.830;9.262;2023-04-24T21:09:39;2.03;;;1.67;;
7759;SDS011;3924;48.830;9.262;2023-04-24T21:12:06;1.70;;;1.60;;
7759;SDS011;3924;48.830;9.262;2023-04-24T21:14:33;1.43;;;1.30;;
7759;SDS011;3924;48.830;9.262;2023-04-24T21:17:01;2.30;;;1.33;;
7759;SDS011;3924;48.830;9.262;2023-04-24T21:19:29;1.40;;;1.30;;
7759;SDS011;3924;48.830;9.262;2023-04-24T21:25:44;1.70;;;1.20;;
7759;SDS011;3924;48.830;9.262;2023-04-24T21:36:24;1.60;;;1.50;;
7759;SDS011;3924;48.830;9.262;2023-04-24T21:39:18;2.10;;;1.50;;
7759;SDS011;3924;48.830;9.262;2023-04-24T21:53:52;1.50;;;1.40;;
7759;SDS011;3924;48.830;9.262;2023-04-24T21:57:02;1.67;;;1.57;;
7759;SDS011;3924;48.830;9.262;2023-04-24T22:01:26;1.80;;;1.20;;
7759;SDS011;3924;48.830;9.262;2023-04-24T22:05:04;1.20;;;1.20;;
7759;SDS011;3924;48.830;9.262;2023-04-24T22:15:51;1.43;;;1.30;;
7759;SDS011;3924;48.830;9.262;2023-04-24T22:25:58;3.57;;;1.63;;
7759;SDS011;3924;48.830;9.262;2023-04-24T22:32:37;2.17;;;1.63;;
7759;SDS011;3924;48.830;9.262;2023-04-24T22:35:52;3.27;;;1.40;;
7759;SDS011;3924;48.830;9.262;2023-04-24T22:42:22;1.87;;;1.60;;
7759;SDS011;3924;48.830;9.262;2023-04-24T22:45:47;2.67;;;1.30;;
7759;SDS011;3924;48.830;9.262;2023-04-24T22:48:15;1.30;;;1.30;;
7759;SDS011;3924;48.830;9.262;2023-04-24T22:51:18;1.83;;;1.67;;
7759;SDS011;3924;48.830;9.262;2023-04-24T22:57:23;1.70;;;1.60;;
7759;SDS011;3924;48.830;9.262;2023-04-24T23:00:14;1.60;;;1.50;;
7759;SDS011;3924;48.830;9.262;2023-04-24T23:03:34;1.70;;;1.60;;
7759;SDS011;3924;48.830;9.262;2023-04-24T23:17:41;2.80;;;1.60;;
7759;SDS011;3924;48.830;9.262;2023-04-24T23:35:04;1.57;;;1.20;;
7759;SDS011;3924;48.830;9.262;2023-04-24T23:40:56;1.50;;;1.30;;
7759;SDS011;3924;48.830;9.262;2023-04-24T23:44:01;1.43;;;1.20;;
7759;SDS011;3924;48.830;9.262;2023-04-24T23:46:54;2.40;;;1.27;;
7759;SDS011;3924;48.830;9.262;2023-04-24T23:53:34;0.90;;;0.90;;
7759;SDS011;3924;48.830;9.262;2023-04-24T23:56:54;1.80;;;0.97;;
7759;SDS011;3924;48.830;9.262;2023-04-24T23:59:58;1.07;;;0.97;;
